Terminal Aerodrome Forecast
Issued by NWS Green Bay, WI

Home | Current Version | Previous Version | Text Only | Print | Product List | Glossary Off
Versions: 1 2 3 4 5 6 7 8 9 10 11 12 13 14 15 16 17 18 19 20 21 22

000
FTUS43 KGRB 170243 AAA
TAFGRB
TAF AMD
KGRB 170243Z 1703/1724 09008KT P6SM BKN120
     FM170400 10008KT P6SM -SHRA SCT025 OVC050
      TEMPO 1706/1708 2SM -TSRA BR BKN015CB
     FM170900 13007KT 4SM BR VCSH BKN008 OVC015
     FM171600 22011G18KT P6SM -SHRA OVC020 PROB30 1716/1718 4SM
      -TSRA BKN015CB=

USA.gov is the U.S. government's official web portal to all federal, state and local government web resources and services.